EKO Airport (Elko Rgnl) Information

FAA: EKO - ICAO: KEKO

EKO Airport Location

State Nevada
County Elko
City Elko
EKO Airport is 1 mile west of Elko, NV.
Latitude 40-49-30.0000N
Longitude 115-47-28.8000W
Elevation 5,139ft

KEKO Airport METARs

METAR KEKO 060756Z AUTO 06005KT 10SM CLR M03/M08 A3029 RMK AO2 SLP260 T10331083 401281044
Altimeter 30.29"
Temperature -3.3°C (26.1°F)
Wind 60° at 5KT
Clouds Skies are clear.
Visibility 10.0mi
Time observed: 2021-12-06T07:56:00Z

EKO Airport Details

Status Operational
Activation April 1940
Ownership Public
Usage Public
Chart SALT LAKE CITY
ATC on-site No
Beacon schedule sunset-sunrise
Beacon color clear green

EKO Airport Contacts

Owner CITY OF ELKO
Owner address 975 TERMINAL WAY, ELKO, NV 89801
Owner phone 775-777-7190
Manager RAY SWANSON
Manager address P.O. BOX 1146, HANFORD, CA 93232
Manager phone 209-584-3217

EKO Airport (Elko Rgnl) Radio Frequencies

EKO (Airport) Radio Frequencies

UNICOM 123
Common traffic advisory frequency (CTAF) 123